Time;durP1;ratioP1;P1;durP2;ratioP2;P2;SDS_P1;SDS_P2;PMS_P1;PMS_P2;Temp;Humidity;BMP_temperature;BMP_pressure;BME280_temperature;BME280_humidity;BME280_pressure;Samples;Min_cycle;Max_cycle;Signal;HPM_P1;HPM_P2
2023/07/08 00:02:54;;;;;;;3.08;2.00;;;;;;;20.08;56.39;96688.78;10310675;28;20101;-30
2023/07/08 00:07:55;;;;;;;2.20;1.83;;;;;;;20.01;56.12;96689.63;10301492;28;20046;-29
2023/07/08 00:12:57;;;;;;;2.20;1.80;;;;;;;19.98;56.31;96679.47;10303836;28;20043;-30
2023/07/08 00:17:59;;;;;;;3.60;1.80;;;;;;;19.97;56.21;96672.72;10325354;28;20294;-29
2023/07/08 00:23:01;;;;;;;3.65;2.30;;;;;;;19.95;56.17;96671.88;10319028;28;20059;-30
2023/07/08 00:28:01;;;;;;;2.38;1.90;;;;;;;19.94;56.43;96673.56;10300230;28;20037;-30
2023/07/08 00:33:02;;;;;;;2.53;1.90;;;;;;;19.95;56.19;96664.25;10298703;28;20039;-30
2023/07/08 00:38:27;;;;;;;2.42;1.95;;;;;;;20.18;56.63;96667.53;10308444;28;20066;-29
2023/07/08 00:43:48;;;;;;;3.33;2.03;;;;;;;20.30;56.80;96647.06;10323841;28;20406;-29
2023/07/08 00:48:50;;;;;;;2.42;1.88;;;;;;;20.23;56.32;96660.69;10314239;28;20109;-30
2023/07/08 00:53:50;;;;;;;2.72;1.60;;;;;;;20.14;56.19;96660.75;10317494;28;20077;-30
2023/07/08 00:58:59;;;;;;;2.10;1.57;;;;;;;20.07;56.23;96659.13;10317359;28;20470;-30
2023/07/08 01:04:10;;;;;;;2.28;1.77;;;;;;;20.06;56.11;96663.38;10316277;28;20337;-29
2023/07/08 01:09:13;;;;;;;3.25;1.90;;;;;;;20.04;56.49;96652.38;10323270;28;20430;-30
2023/07/08 01:14:19;;;;;;;3.67;2.45;;;;;;;20.08;57.02;96654.03;10330009;28;20122;-29
2023/07/08 01:19:31;;;;;;;3.40;1.93;;;;;;;20.04;56.27;96671.81;10326303;28;20046;-31
2023/07/08 01:24:38;;;;;;;3.38;2.10;;;;;;;20.02;56.28;96668.44;10340507;28;20093;-30
2023/07/08 01:29:38;;;;;;;2.75;1.98;;;;;;;20.17;56.84;96676.84;10327356;28;20035;-30
2023/07/08 01:34:39;;;;;;;1.95;1.60;;;;;;;20.33;57.29;96696.22;10308268;28;20034;-29
2023/07/08 01:39:40;;;;;;;2.13;1.75;;;;;;;20.28;56.44;96694.56;10310211;28;20035;-30
2023/07/08 01:44:40;;;;;;;2.67;1.70;;;;;;;20.21;56.65;96687.81;10294673;28;20033;-30
2023/07/08 01:49:43;;;;;;;2.27;1.90;;;;;;;20.16;56.65;96681.91;10315706;28;20092;-30
2023/07/08 01:54:43;;;;;;;4.38;2.10;;;;;;;20.09;56.55;96690.47;10293334;28;20287;-29
2023/07/08 01:59:44;;;;;;;2.35;1.95;;;;;;;20.10;56.52;96684.53;10304805;28;20035;-30
2023/07/08 02:04:44;;;;;;;3.20;2.00;;;;;;;20.07;56.40;96689.63;10304156;28;20183;-30
2023/07/08 02:09:46;;;;;;;2.58;1.80;;;;;;;20.02;56.24;96686.25;10336676;28;20286;-30
2023/07/08 02:14:47;;;;;;;2.73;1.50;;;;;;;20.05;56.20;96686.25;10302365;28;20041;-30
2023/07/08 02:19:50;;;;;;;2.97;2.08;;;;;;;20.06;58.08;96673.53;10324207;28;20036;-30
2023/07/08 02:24:50;;;;;;;3.28;2.40;;;;;;;20.29;56.89;96666.59;10325039;28;20109;-30
2023/07/08 02:29:51;;;;;;;3.47;1.70;;;;;;;20.37;57.22;96679.22;10295418;28;20097;-29
2023/07/08 02:34:52;;;;;;;2.77;1.87;;;;;;;20.29;56.55;96701.31;10320440;28;20062;-30
2023/07/08 02:39:52;;;;;;;2.00;1.77;;;;;;;20.20;56.31;96716.66;10307684;28;20286;-29
2023/07/08 02:44:52;;;;;;;3.03;1.93;;;;;;;20.14;56.33;96754.81;10313088;28;20038;-30
2023/07/08 02:49:54;;;;;;;2.75;2.00;;;;;;;20.07;56.32;96746.38;10306666;28;20313;-29
2023/07/08 02:54:54;;;;;;;4.43;2.00;;;;;;;20.08;56.38;96749.78;10308926;28;20415;-30
2023/07/08 02:59:55;;;;;;;3.28;1.60;;;;;;;20.06;56.41;96748.94;10319268;28;20030;-29
2023/07/08 03:04:58;;;;;;;2.30;1.90;;;;;;;20.03;56.52;96769.25;10331455;28;20034;-30
2023/07/08 03:09:59;;;;;;;2.50;2.13;;;;;;;20.04;56.20;96773.47;10310680;28;20290;-30
2023/07/08 03:14:59;;;;;;;2.40;1.75;;;;;;;20.17;57.07;96785.31;10328648;28;20034;-30
2023/07/08 03:20:00;;;;;;;2.30;2.00;;;;;;;20.35;57.24;96788.56;10318567;28;20037;-30
2023/07/08 03:25:00;;;;;;;2.27;1.73;;;;;;;20.38;56.34;96800.44;10338014;28;20046;-29
2023/07/08 03:30:01;;;;;;;2.20;1.38;;;;;;;20.28;56.67;96808.97;10294181;28;20130;-30
2023/07/08 03:35:01;;;;;;;3.40;1.48;;;;;;;20.20;56.61;96818.34;10300773;28;20097;-30
2023/07/08 03:40:02;;;;;;;2.25;1.70;;;;;;;20.12;56.55;96826.00;10297322;28;20776;-30
2023/07/08 03:45:04;;;;;;;1.48;1.35;;;;;;;20.08;56.44;96831.13;10322987;28;20038;-30
2023/07/08 03:50:06;;;;;;;2.70;1.73;;;;;;;20.07;56.61;96854.81;10301580;28;20042;-29
2023/07/08 03:55:10;;;;;;;2.00;1.58;;;;;;;20.06;56.64;96873.47;10322008;28;20104;-30
2023/07/08 04:00:12;;;;;;;2.33;1.80;;;;;;;20.03;56.67;96891.25;10321758;28;20117;-30
2023/07/08 04:05:19;;;;;;;2.65;1.83;;;;;;;20.03;56.64;96911.56;10310250;28;20069;-30
2023/07/08 04:10:19;;;;;;;2.67;1.60;;;;;;;20.22;57.04;96913.22;10302509;28;20570;-30
2023/07/08 04:15:25;;;;;;;2.00;1.60;;;;;;;20.38;57.21;96935.22;10317794;28;20034;-29
2023/07/08 04:20:25;;;;;;;2.15;1.55;;;;;;;20.38;56.58;96960.63;10324145;28;20274;-29
2023/07/08 04:25:26;;;;;;;1.95;1.65;;;;;;;20.30;56.98;96967.44;10324878;28;20042;-29
2023/07/08 04:30:26;;;;;;;1.93;1.60;;;;;;;20.24;57.15;96936.94;10316148;28;20038;-29
2023/07/08 04:35:28;;;;;;;2.90;2.08;;;;;;;20.20;56.81;96960.69;10301238;28;20326;-31
2023/07/08 04:40:29;;;;;;;4.93;1.88;;;;;;;20.22;59.52;96976.78;10319961;28;20038;-29
2023/07/08 04:45:29;;;;;;;3.03;2.35;;;;;;;20.50;60.72;96982.66;10320631;28;20498;-29
2023/07/08 04:50:30;;;;;;;2.67;1.85;;;;;;;20.37;59.68;96975.06;10308675;28;20218;-30
2023/07/08 04:55:30;;;;;;;2.15;1.70;;;;;;;20.37;58.63;96987.78;10325949;28;20034;-30
2023/07/08 05:00:31;;;;;;;2.10;1.57;;;;;;;20.30;59.62;96997.97;10330292;28;20026;-30
2023/07/08 05:05:31;;;;;;;2.40;1.67;;;;;;;20.48;60.09;97001.31;10305014;28;20081;-30
2023/07/08 05:10:32;;;;;;;4.10;1.77;;;;;;;20.54;59.53;97022.47;10323183;28;20290;-30
2023/07/08 05:15:32;;;;;;;5.80;1.90;;;;;;;20.55;59.59;97011.44;10297061;28;20045;-30
2023/07/08 05:20:34;;;;;;;3.80;1.95;;;;;;;20.70;61.91;96988.47;10299864;28;20751;-30
2023/07/08 05:25:35;;;;;;;4.32;2.08;;;;;;;20.65;62.41;96944.41;10306715;28;20038;-30
2023/07/08 05:30:35;;;;;;;4.65;1.88;;;;;;;20.54;60.92;96917.34;10310072;28;20475;-30
2023/07/08 05:35:36;;;;;;;2.53;1.50;;;;;;;20.52;61.93;96916.47;10312392;28;20046;-29
2023/07/08 05:40:36;;;;;;;6.80;2.50;;;;;;;20.47;60.06;96911.41;10292029;28;20293;-30
2023/07/08 05:45:36;;;;;;;3.70;2.20;;;;;;;20.40;60.53;96914.00;10295191;28;20316;-30
2023/07/08 05:50:37;;;;;;;3.17;1.70;;;;;;;20.40;60.89;96919.09;10291333;28;20026;-30
2023/07/08 05:55:39;;;;;;;2.83;1.60;;;;;;;20.55;62.57;96904.59;10295631;28;20034;-29
2023/07/08 06:00:39;;;;;;;4.60;2.17;;;;;;;20.53;61.12;96898.69;10291116;28;20233;-30
2023/07/08 06:05:39;;;;;;;8.30;2.23;;;;;;;20.69;63.28;96928.28;10294534;28;20042;-30
2023/07/08 06:10:44;;;;;;;5.40;2.53;;;;;;;20.68;62.76;96938.44;10288599;28;20039;-29
2023/07/08 06:15:45;;;;;;;5.20;3.00;;;;;;;20.60;61.30;96897.81;10286347;28;20041;-30
2023/07/08 06:20:51;;;;;;;3.13;1.83;;;;;;;20.61;61.90;96871.50;10296543;28;20031;-30
2023/07/08 06:25:52;;;;;;;3.30;2.10;;;;;;;20.60;61.75;96887.63;10298503;28;20258;-29
2023/07/08 06:30:52;;;;;;;4.45;2.00;;;;;;;20.49;61.15;96871.59;10289162;28;20034;-30
2023/07/08 06:35:52;;;;;;;5.70;1.90;;;;;;;20.48;61.42;96862.25;10289840;28;20455;-29
2023/07/08 06:40:53;;;;;;;3.93;1.67;;;;;;;20.36;60.17;96843.66;10301175;28;20411;-30
2023/07/08 06:45:55;;;;;;;3.27;1.67;;;;;;;20.29;59.90;96829.31;10289449;28;20514;-29
2023/07/08 06:50:56;;;;;;;4.10;2.17;;;;;;;20.39;59.43;96808.06;10295628;28;20038;-30
2023/07/08 06:55:56;;;;;;;5.25;1.20;;;;;;;20.65;59.29;96809.56;10289272;28;20038;-30
2023/07/08 07:00:57;;;;;;;8.80;2.30;;;;;;;20.70;58.83;96812.06;10288745;28;20023;-30
2023/07/08 07:05:57;;;;;;;2.50;1.60;;;;;;;20.43;59.45;96822.44;10288750;28;20561;-30
2023/07/08 07:10:57;;;;;;;1.93;1.47;;;;;;;20.50;60.79;96819.00;10288236;28;20046;-30
2023/07/08 07:15:58;;;;;;;2.73;1.50;;;;;;;20.53;60.00;96824.06;10287753;28;20035;-29
2023/07/08 07:20:59;;;;;;;6.00;1.60;;;;;;;20.34;60.26;96835.19;10287908;28;20118;-30
2023/07/08 07:25:59;;;;;;;5.78;1.75;;;;;;;20.30;59.04;96847.94;10288472;28;20046;-30
2023/07/08 07:31:00;;;;;;;4.53;1.67;;;;;;;20.31;59.25;96867.44;10297239;28;20630;-29
2023/07/08 07:36:00;;;;;;;4.25;1.75;;;;;;;20.28;59.67;96875.91;10287452;28;20034;-29
2023/07/08 07:41:05;;;;;;;2.45;1.35;;;;;;;20.22;59.23;96892.91;10287063;28;20035;-29
2023/07/08 07:46:07;;;;;;;3.10;1.73;;;;;;;20.42;58.67;96892.81;10291728;28;20042;-30
2023/07/08 07:51:10;;;;;;;5.63;2.22;;;;;;;20.52;58.84;96894.44;10288230;28;20046;-30
2023/07/08 07:56:10;;;;;;;3.55;1.40;;;;;;;20.44;58.66;96901.28;10296343;28;20064;-29
2023/07/08 08:01:13;;;;;;;4.07;1.40;;;;;;;20.34;58.76;96914.03;10325785;28;20510;-30
2023/07/08 08:06:13;;;;;;;2.90;1.15;;;;;;;20.27;58.56;96922.53;10326533;28;20449;-32
2023/07/08 08:11:13;;;;;;;3.60;1.55;;;;;;;20.20;58.12;96917.47;10337435;28;20084;-30
2023/07/08 08:16:14;;;;;;;1.93;1.13;;;;;;;20.19;58.03;96918.34;10338045;28;20033;-30
2023/07/08 08:21:14;;;;;;;4.97;1.23;;;;;;;20.17;57.88;96927.69;10309309;28;20525;-31
2023/07/08 08:26:17;;;;;;;3.05;1.27;;;;;;;20.15;57.95;96921.72;10289035;28;20038;-31
2023/07/08 08:31:17;;;;;;;1.70;1.00;;;;;;;20.14;58.05;96931.06;10295869;28;20122;-31
2023/07/08 08:36:18;;;;;;;5.43;1.17;;;;;;;20.21;58.94;96937.81;10293030;28;20113;-29
2023/07/08 08:41:27;;;;;;;3.58;1.27;;;;;;;20.46;58.82;96941.97;10303465;28;20521;-30
2023/07/08 08:46:51;;;;;;;4.03;1.25;;;;;;;20.51;58.51;96941.09;10299096;28;20452;-30
2023/07/08 08:51:53;;;;;;;2.90;1.30;;;;;;;20.38;58.75;96936.91;10308097;28;20030;-29
2023/07/08 08:57:05;;;;;;;8.30;1.77;;;;;;;20.26;59.34;96932.72;10298973;28;20042;-29
2023/07/08 09:02:27;;;;;;;7.60;1.80;;;;;;;20.29;58.80;96937.78;10295601;28;20451;-29
2023/07/08 09:07:29;;;;;;;12.30;1.92;;;;;;;20.29;58.78;96927.63;10300440;28;20035;-30
2023/07/08 09:12:33;;;;;;;7.00;1.77;;;;;;;20.20;58.82;96927.66;10295187;28;20042;-29
2023/07/08 09:17:35;;;;;;;16.85;2.13;;;;;;;20.24;58.82;96929.31;10295748;28;20448;-32
2023/07/08 09:22:47;;;;;;;7.00;2.00;;;;;;;20.21;57.98;96929.34;10298007;28;20418;-30
2023/07/08 09:27:48;;;;;;;8.15;2.17;;;;;;;20.19;58.04;96933.59;10300052;28;20097;-29
2023/07/08 09:32:49;;;;;;;4.45;1.80;;;;;;;20.38;59.11;96929.25;10291385;28;20090;-30
2023/07/08 09:37:50;;;;;;;9.77;2.33;;;;;;;20.54;59.79;96930.91;10292949;28;20266;-30
2023/07/08 09:42:55;;;;;;;5.10;1.50;;;;;;;20.51;58.42;96927.50;10300337;28;20372;-30
2023/07/08 09:47:56;;;;;;;6.13;1.70;;;;;;;20.38;58.79;96923.34;10291606;28;20034;-30
2023/07/08 09:52:59;;;;;;;6.60;2.00;;;;;;;20.31;58.60;96926.78;10292169;28;20039;-30
2023/07/08 09:58:03;;;;;;;4.50;1.65;;;;;;;20.27;58.14;96924.25;10299554;28;20035;-29
2023/07/08 10:03:11;;;;;;;3.78;1.50;;;;;;;20.25;58.14;96923.41;10291459;28;20407;-30
2023/07/08 10:08:21;;;;;;;6.18;1.42;;;;;;;20.23;58.16;96917.47;10290980;28;20121;-30
2023/07/08 10:13:28;;;;;;;8.23;1.95;;;;;;;20.20;57.75;96920.03;10290786;28;20066;-30
2023/07/08 10:18:30;;;;;;;7.40;1.55;;;;;;;20.20;57.93;96917.47;10290499;28;20027;-29
2023/07/08 10:23:50;;;;;;;3.65;1.27;;;;;;;20.19;58.28;96924.25;10290425;28;20031;-30
2023/07/08 10:29:15;;;;;;;5.13;1.70;;;;;;;20.44;59.22;96911.44;10298396;28;20101;-30
2023/07/08 10:34:36;;;;;;;3.97;1.40;;;;;;;20.53;58.67;96913.94;10295287;28;20042;-30
2023/07/08 10:40:01;;;;;;;4.25;1.27;;;;;;;20.42;58.68;96926.72;10289423;28;20075;-30
2023/07/08 10:45:21;;;;;;;8.48;1.65;;;;;;;20.34;58.60;96914.03;10289764;28;20403;-30
2023/07/08 10:50:38;;;;;;;6.03;1.58;;;;;;;20.29;58.17;96912.38;10289150;28;20046;-30
2023/07/08 10:55:57;;;;;;;2.28;1.38;;;;;;;20.29;58.41;96914.91;10289289;28;20118;-30
2023/07/08 11:01:21;;;;;;;4.47;1.67;;;;;;;20.29;58.39;96914.91;10288745;28;20042;-30
2023/07/08 11:06:46;;;;;;;6.75;1.77;;;;;;;20.28;58.41;96918.31;10289023;28;20031;-29
2023/07/08 11:11:54;;;;;;;6.57;1.92;;;;;;;20.24;58.01;96917.47;10288442;28;20066;-30
2023/07/08 11:17:30;;;;;;;3.92;1.52;;;;;;;20.28;60.29;96928.47;10288003;28;20035;-30
2023/07/08 11:22:34;;;;;;;8.27;1.60;;;;;;;20.47;59.28;96921.59;10272677;28;20422;-30
2023/07/08 11:27:41;;;;;;;3.88;1.23;;;;;;;20.57;58.82;96915.59;10287944;28;20042;-30
2023/07/08 11:32:45;;;;;;;2.80;1.40;;;;;;;20.46;58.70;96919.91;10288626;28;20039;-30
2023/07/08 11:37:47;;;;;;;4.88;1.42;;;;;;;20.39;58.71;96922.50;10294579;28;20043;-30
2023/07/08 11:42:51;;;;;;;3.33;1.98;;;;;;;20.31;58.58;96910.66;10295477;28;20035;-30
2023/07/08 11:47:51;;;;;;;2.50;1.20;;;;;;;20.31;58.52;96915.72;10298797;28;20094;-30
2023/07/08 11:53:00;;;;;;;5.00;2.00;;;;;;;20.29;58.48;96903.06;10295127;28;20110;-30
2023/07/08 11:58:00;;;;;;;1.77;1.00;;;;;;;20.28;58.44;96903.88;10292252;28;20343;-30
2023/07/08 12:03:19;;;;;;;4.30;1.60;;;;;;;20.27;58.04;96901.38;10295190;28;20030;-29
2023/07/08 12:08:20;;;;;;;4.13;1.33;;;;;;;20.26;58.33;96902.22;10286741;28;20037;-31
2023/07/08 12:13:23;;;;;;;4.57;1.60;;;;;;;20.38;59.30;96904.69;10286890;28;20514;-29
2023/07/08 12:18:36;;;;;;;2.75;1.25;;;;;;;20.55;59.58;96904.59;10286663;28;20035;-30
2023/07/08 12:23:36;;;;;;;2.55;1.20;;;;;;;20.53;58.82;96906.31;10286898;28;20453;-30
2023/07/08 12:28:38;;;;;;;4.03;1.40;;;;;;;20.41;58.93;96890.28;10289773;28;20034;-29
2023/07/08 12:33:39;;;;;;;2.15;1.20;;;;;;;20.36;58.84;96886.06;10302732;28;20038;-30
2023/07/08 12:38:44;;;;;;;3.83;1.60;;;;;;;20.32;58.44;96884.38;10294023;28;20455;-38
2023/07/08 12:43:46;;;;;;;5.35;1.80;;;;;;;20.31;58.40;96878.47;10294527;28;20118;-29
2023/07/08 12:48:47;;;;;;;2.20;1.30;;;;;;;20.29;58.22;96879.31;10293849;28;20034;-30
2023/07/08 12:53:47;;;;;;;1.30;0.82;;;;;;;20.30;58.45;96886.06;10293999;28;20496;-30
2023/07/08 12:58:55;;;;;;;4.00;1.77;;;;;;;20.29;58.35;96881.84;10293698;28;20042;-30
2023/07/08 13:04:01;;;;;;;2.97;1.65;;;;;;;20.30;58.91;96878.44;10295661;28;20503;-29
2023/07/08 13:09:37;;;;;;;2.78;1.30;;;;;;;20.50;59.23;96886.00;10297268;28;20584;-30
2023/07/08 13:14:43;;;;;;;2.78;1.08;;;;;;;20.58;58.96;96871.53;10292497;28;20123;-29
2023/07/08 13:19:44;;;;;;;1.50;1.03;;;;;;;20.47;59.00;96875.00;10292851;28;20035;-30
2023/07/08 13:24:45;;;;;;;3.88;1.40;;;;;;;20.40;58.99;96874.16;10301203;28;20505;-29
2023/07/08 13:29:46;;;;;;;2.15;1.05;;;;;;;20.37;58.43;96880.13;10292841;28;20043;-30
2023/07/08 13:34:50;;;;;;;2.83;1.20;;;;;;;20.33;58.68;96870.84;10297536;28;20042;-30
2023/07/08 13:39:53;;;;;;;1.60;1.02;;;;;;;20.33;58.94;96865.75;10291428;28;20094;-29
2023/07/08 13:44:53;;;;;;;2.35;0.93;;;;;;;20.32;58.47;96858.94;10298603;28;20042;-33
2023/07/08 13:50:04;;;;;;;3.07;1.70;;;;;;;20.32;58.56;96866.56;10299273;28;20066;-30
2023/07/08 13:55:18;;;;;;;2.67;1.55;;;;;;;20.30;58.32;96863.19;10294781;28;20304;-30
2023/07/08 14:00:19;;;;;;;1.98;1.20;;;;;;;20.44;59.22;96860.56;10299455;28;20026;-30
2023/07/08 14:05:21;;;;;;;2.05;1.40;;;;;;;20.60;59.34;96859.63;10294753;28;20027;-30
2023/07/08 14:10:23;;;;;;;2.45;1.00;;;;;;;20.57;58.37;96857.09;10296677;28;20035;-30
2023/07/08 14:15:24;;;;;;;1.88;1.00;;;;;;;20.47;59.24;96845.28;10300859;28;20114;-30
2023/07/08 14:20:27;;;;;;;2.73;1.73;;;;;;;20.40;59.16;96858.88;10290335;28;20027;-29
2023/07/08 14:25:27;;;;;;;3.67;1.40;;;;;;;20.39;59.01;96851.28;10289621;28;20117;-30
2023/07/08 14:30:28;;;;;;;1.60;1.23;;;;;;;20.37;58.81;96847.06;10289940;28;20035;-30
2023/07/08 14:35:29;;;;;;;2.88;1.10;;;;;;;20.36;58.82;96845.38;10289895;28;20066;-30
2023/07/08 14:40:38;;;;;;;2.13;1.30;;;;;;;20.34;58.60;96847.91;10289630;28;20034;-30
2023/07/08 14:45:46;;;;;;;3.00;1.35;;;;;;;20.34;58.76;96852.19;10296621;28;20034;-30
2023/07/08 14:50:47;;;;;;;3.05;1.30;;;;;;;20.33;58.63;96850.50;10296681;28;20066;-29
2023/07/08 14:55:50;;;;;;;2.20;1.08;;;;;;;20.50;59.35;96854.59;10293519;28;20054;-31
2023/07/08 15:00:51;;;;;;;1.45;1.00;;;;;;;20.64;59.27;96860.47;10288927;28;20493;-30
2023/07/08 15:05:52;;;;;;;1.45;0.95;;;;;;;20.59;58.53;96859.63;10289091;28;20031;-30
2023/07/08 15:10:53;;;;;;;0.98;0.88;;;;;;;20.47;59.15;96859.72;10300844;28;20031;-30
2023/07/08 15:15:53;;;;;;;1.40;1.05;;;;;;;20.42;59.08;96859.75;10288790;28;20046;-30
2023/07/08 15:20:53;;;;;;;3.13;1.17;;;;;;;20.39;58.92;96869.91;10288167;28;20030;-30
2023/07/08 15:25:54;;;;;;;1.57;1.00;;;;;;;20.35;59.12;96859.78;10288341;28;20294;-29
2023/07/08 15:30:54;;;;;;;1.40;1.10;;;;;;;20.37;58.95;96858.09;10287925;28;20042;-29
2023/07/08 15:35:55;;;;;;;1.60;1.10;;;;;;;20.37;58.79;96857.22;10302693;28;20031;-30
2023/07/08 15:40:55;;;;;;;3.28;1.98;;;;;;;20.36;58.56;96870.81;10287816;28;20030;-30
2023/07/08 15:45:55;;;;;;;1.47;1.00;;;;;;;20.34;58.84;96864.88;10290153;28;20046;-30
2023/07/08 15:50:56;;;;;;;1.80;1.10;;;;;;;20.52;59.12;96861.38;10287343;28;20039;-30
2023/07/08 15:55:57;;;;;;;1.27;1.10;;;;;;;20.62;58.66;96857.94;10287987;28;20487;-30
2023/07/08 16:00:59;;;;;;;1.20;0.90;;;;;;;20.55;58.91;96858.81;10293621;28;20495;-30
2023/07/08 16:05:59;;;;;;;1.55;1.10;;;;;;;20.46;59.03;96852.94;10287246;28;20035;-30
2023/07/08 16:11:10;;;;;;;2.05;1.30;;;;;;;20.39;58.78;96852.13;10286884;28;20035;-29
2023/07/08 16:16:11;;;;;;;1.85;1.08;;;;;;;20.39;58.93;96857.22;10287266;28;20043;-29
2023/07/08 16:21:12;;;;;;;3.25;1.67;;;;;;;20.36;58.72;96851.28;10289480;28;20034;-30
2023/07/08 16:26:15;;;;;;;1.57;1.10;;;;;;;20.36;58.59;96855.53;10292315;28;20039;-30
2023/07/08 16:31:20;;;;;;;1.70;1.20;;;;;;;20.36;58.53;96855.53;10294646;28;20035;-30
2023/07/08 16:36:25;;;;;;;1.60;0.93;;;;;;;20.36;58.75;96855.53;10286133;28;20030;-30
2023/07/08 16:41:33;;;;;;;1.63;1.30;;;;;;;20.46;59.41;96852.94;10286493;28;20038;-30
2023/07/08 16:46:33;;;;;;;2.53;1.20;;;;;;;20.61;59.51;96858.78;10286417;28;20030;-30
2023/07/08 16:51:34;;;;;;;1.67;0.90;;;;;;;20.66;58.41;96857.06;10286401;28;20675;-30
2023/07/08 16:56:35;;;;;;;1.70;1.17;;;;;;;20.54;59.18;96861.38;10286213;28;20124;-30
2023/07/08 17:01:35;;;;;;;1.30;0.90;;;;;;;20.46;59.10;96852.94;10286652;28;20438;-30
2023/07/08 17:06:36;;;;;;;1.50;0.90;;;;;;;20.42;58.96;96852.97;10286894;28;20506;-30
2023/07/08 17:11:36;;;;;;;1.17;0.88;;;;;;;20.39;58.53;96856.38;10291454;28;20117;-30
2023/07/08 17:16:38;;;;;;;1.50;1.10;;;;;;;20.38;58.80;96858.06;10298213;28;20045;-30
2023/07/08 17:21:38;;;;;;;2.33;1.20;;;;;;;20.37;58.65;96855.53;10302873;28;20022;-30
2023/07/08 17:26:39;;;;;;;2.10;1.23;;;;;;;20.34;58.75;96853.00;10301159;28;20514;-30
2023/07/08 17:31:39;;;;;;;1.08;0.85;;;;;;;20.37;58.66;96849.59;10300240;28;20035;-30
2023/07/08 17:36:39;;;;;;;1.55;1.10;;;;;;;20.48;59.34;96846.16;10299745;28;20045;-30
2023/07/08 17:41:40;;;;;;;1.40;0.90;;;;;;;20.64;58.93;96858.75;10292203;28;20022;-31
2023/07/08 17:46:41;;;;;;;1.07;0.97;;;;;;;20.62;58.58;96854.56;10291914;28;20046;-30
2023/07/08 17:51:41;;;;;;;1.45;1.15;;;;;;;20.50;59.16;96860.56;10291887;28;20113;-30
2023/07/08 17:56:44;;;;;;;1.93;0.97;;;;;;;20.44;58.86;96854.63;10299872;28;20035;-32
2023/07/08 18:01:45;;;;;;;2.47;1.40;;;;;;;20.42;58.73;96865.69;10298195;28;20286;-30
2023/07/08 18:06:46;;;;;;;1.48;0.85;;;;;;;20.39;58.60;96864.00;10291310;28;20491;-30
2023/07/08 18:11:48;;;;;;;1.63;1.13;;;;;;;20.38;58.87;96864.00;10290303;28;20408;-30
2023/07/08 18:16:49;;;;;;;2.03;0.95;;;;;;;20.38;58.69;96871.63;10290716;28;20399;-30
2023/07/08 18:21:50;;;;;;;1.08;0.77;;;;;;;20.37;59.25;96872.50;10292440;28;20027;-30
2023/07/08 18:26:50;;;;;;;2.13;1.10;;;;;;;20.38;58.64;96881.81;10290934;28;20034;-30
2023/07/08 18:31:50;;;;;;;2.13;0.90;;;;;;;20.56;59.13;96870.66;10291953;28;20027;-30
2023/07/08 18:36:51;;;;;;;1.93;1.10;;;;;;;20.70;59.09;96874.00;10290673;28;20035;-30
2023/07/08 18:41:52;;;;;;;1.80;1.15;;;;;;;20.62;58.72;96885.91;10291285;28;20388;-30
2023/07/08 18:46:53;;;;;;;1.67;1.20;;;;;;;20.49;58.88;96889.41;10291493;28;20042;-30
2023/07/08 18:51:54;;;;;;;1.50;1.02;;;;;;;20.45;58.97;96897.88;10289608;28;20047;-30
2023/07/08 18:56:54;;;;;;;1.25;0.90;;;;;;;20.40;58.79;96904.66;10297014;28;20038;-30
2023/07/08 19:01:55;;;;;;;1.17;1.08;;;;;;;20.40;58.62;96914.00;10289413;28;20035;-30
2023/07/08 19:06:57;;;;;;;2.17;1.50;;;;;;;20.39;58.57;96923.31;10289014;28;20530;-29
2023/07/08 19:11:57;;;;;;;1.20;1.02;;;;;;;20.38;58.41;96928.44;10296069;28;20035;-30
2023/07/08 19:16:58;;;;;;;1.40;0.90;;;;;;;20.37;58.49;96928.44;10288365;28;20113;-30
2023/07/08 19:22:00;;;;;;;1.40;1.20;;;;;;;20.37;58.96;96933.53;10296206;28;20034;-30
2023/07/08 19:27:01;;;;;;;1.27;1.00;;;;;;;20.58;58.88;96942.75;10288256;28;20034;-29
2023/07/08 19:32:02;;;;;;;1.52;1.10;;;;;;;20.70;58.38;96937.59;10291304;28;20047;-30
2023/07/08 19:37:02;;;;;;;1.05;0.90;;;;;;;20.59;58.68;96944.44;10287634;28;20035;-30
2023/07/08 19:42:03;;;;;;;1.40;0.90;;;;;;;20.49;58.93;96955.53;10287621;28;20114;-29
2023/07/08 19:47:03;;;;;;;1.88;1.13;;;;;;;20.44;58.64;96967.41;10290832;28;20047;-30
2023/07/08 19:52:05;;;;;;;1.20;1.10;;;;;;;20.42;58.60;96974.19;10287706;28;20046;-30
2023/07/08 19:57:10;;;;;;;2.00;0.93;;;;;;;20.40;58.61;96980.97;10287604;28;20381;-29
2023/07/08 20:02:14;;;;;;;1.50;1.10;;;;;;;20.39;58.53;96984.34;10287487;28;20031;-30
2023/07/08 20:07:14;;;;;;;1.45;0.98;;;;;;;20.38;58.41;96986.06;10287432;28;20038;-30
2023/07/08 20:12:15;;;;;;;1.10;1.00;;;;;;;20.37;58.66;96985.25;10286721;28;20034;-30
2023/07/08 20:17:21;;;;;;;1.15;0.98;;;;;;;20.42;60.06;96997.94;10286798;28;20039;-30
2023/07/08 20:22:22;;;;;;;1.40;0.88;;;;;;;20.62;59.19;97000.41;10286920;28;20031;-29
2023/07/08 20:27:26;;;;;;;1.00;0.70;;;;;;;20.68;58.23;97002.91;10287157;28;20050;-30
2023/07/08 20:32:27;;;;;;;1.08;0.90;;;;;;;20.56;58.71;97002.94;10286631;28;20027;-30
2023/07/08 20:37:27;;;;;;;1.40;0.93;;;;;;;20.49;58.77;97006.41;10286706;28;20027;-31
2023/07/08 20:42:27;;;;;;;1.43;0.80;;;;;;;20.43;58.60;97006.41;10293683;28;20027;-29
2023/07/08 20:47:28;;;;;;;1.20;0.73;;;;;;;20.42;58.68;97006.41;10286496;28;20089;-30
2023/07/08 20:52:29;;;;;;;1.13;1.02;;;;;;;20.40;58.51;97014.03;10293737;28;20506;-30
2023/07/08 20:57:29;;;;;;;1.02;0.80;;;;;;;20.38;58.65;97014.03;10293713;28;20031;-30
2023/07/08 21:02:30;;;;;;;1.63;0.83;;;;;;;20.39;58.42;97030.13;10293718;28;20023;-30
2023/07/08 21:07:30;;;;;;;0.77;0.77;;;;;;;20.38;58.28;97042.88;10293990;28;20058;-30
2023/07/08 21:12:30;;;;;;;1.20;1.00;;;;;;;20.51;59.11;97039.44;10292831;28;20064;-30
2023/07/08 21:17:31;;;;;;;1.63;1.00;;;;;;;20.66;58.55;97037.72;10300936;28;20031;-30
2023/07/08 21:22:36;;;;;;;0.95;0.88;;;;;;;20.70;58.12;97029.19;10301140;28;20653;-29
2023/07/08 21:27:37;;;;;;;1.05;0.80;;;;;;;20.58;58.48;97028.41;10292525;28;20054;-30
2023/07/08 21:32:37;;;;;;;1.00;0.90;;;;;;;20.50;58.65;97041.16;10296630;28;20034;-31
2023/07/08 21:37:44;;;;;;;1.00;0.90;;;;;;;20.42;58.66;97030.16;10292229;28;20045;-30
2023/07/08 21:42:44;;;;;;;1.20;0.70;;;;;;;20.42;58.54;97035.25;10294585;28;20491;-30
2023/07/08 21:47:45;;;;;;;1.20;0.80;;;;;;;20.40;58.52;97044.53;10291927;28;20041;-29
2023/07/08 21:52:45;;;;;;;0.80;0.63;;;;;;;20.39;58.38;97039.47;10299616;28;20050;-30
2023/07/08 21:57:46;;;;;;;1.05;0.85;;;;;;;20.39;58.35;97035.22;10291378;28;20035;-30
2023/07/08 22:02:54;;;;;;;1.17;0.90;;;;;;;20.38;58.19;97042.88;10291285;28;20023;-29
2023/07/08 22:07:54;;;;;;;2.38;0.88;;;;;;;20.52;58.59;97047.06;10290754;28;20680;-30
2023/07/08 22:12:55;;;;;;;1.43;0.73;;;;;;;20.68;58.57;97048.72;10292007;28;20047;-30
2023/07/08 22:17:58;;;;;;;1.20;0.90;;;;;;;20.69;57.94;97058.03;10292381;28;20069;-30
2023/07/08 22:22:58;;;;;;;1.08;0.60;;;;;;;20.57;58.69;97054.69;10292512;28;20356;-30
2023/07/08 22:27:59;;;;;;;1.10;0.97;;;;;;;20.48;58.65;97050.47;10291425;28;20093;-29
2023/07/08 22:32:59;;;;;;;0.90;0.80;;;;;;;20.46;58.59;97046.25;10298508;28;20104;-30
2023/07/08 22:38:00;;;;;;;1.10;0.80;;;;;;;20.43;58.44;97046.25;10290025;28;20514;-29
2023/07/08 22:43:01;;;;;;;1.77;1.02;;;;;;;20.40;58.40;97044.53;10289385;28;20420;-30
2023/07/08 22:48:04;;;;;;;0.88;0.60;;;;;;;20.39;58.29;97045.41;10290194;28;20039;-30
2023/07/08 22:53:05;;;;;;;1.10;0.77;;;;;;;20.39;58.25;97039.47;10303477;28;20089;-30
2023/07/08 22:58:19;;;;;;;0.93;0.57;;;;;;;20.39;58.26;97045.41;10289775;28;20507;-30
2023/07/08 23:03:20;;;;;;;0.93;0.70;;;;;;;20.55;58.62;97048.78;10302611;28;20045;-30
2023/07/08 23:08:28;;;;;;;0.60;0.60;;;;;;;20.71;58.49;97053.78;10295738;28;20031;-30
2023/07/08 23:13:37;;;;;;;0.88;0.70;;;;;;;20.65;58.21;97043.63;10290556;28;20042;-30
2023/07/08 23:18:38;;;;;;;0.90;0.55;;;;;;;20.54;58.55;97054.72;10307582;28;20106;-29
2023/07/08 23:23:38;;;;;;;0.77;0.73;;;;;;;20.48;58.40;97047.91;10296342;28;20053;-30
2023/07/08 23:28:39;;;;;;;0.70;0.53;;;;;;;20.45;58.19;97057.28;10288335;28;20583;-29